sensor_id;sensor_type;location;lat;lon;timestamp;temperature;humidity
14924;DHT22;7554;43.600;1.480;2023-10-31T00:00:48;11.60;99.90
14924;DHT22;7554;43.600;1.480;2023-10-31T00:03:17;11.00;99.90
14924;DHT22;7554;43.600;1.480;2023-10-31T00:05:45;12.00;99.90
14924;DHT22;7554;43.600;1.480;2023-10-31T00:08:12;11.70;99.90
14924;DHT22;7554;43.600;1.480;2023-10-31T00:10:39;11.10;99.90
14924;DHT22;7554;43.600;1.480;2023-10-31T00:13:10;11.10;99.90
14924;DHT22;7554;43.600;1.480;2023-10-31T00:15:38;10.40;99.90
14924;DHT22;7554;43.600;1.480;2023-10-31T00:18:05;10.60;99.90
14924;DHT22;7554;43.600;1.480;2023-10-31T00:20:34;11.70;99.90
14924;DHT22;7554;43.600;1.480;2023-10-31T00:23:02;10.70;99.90
14924;DHT22;7554;43.600;1.480;2023-10-31T00:25:29;11.30;99.90
14924;DHT22;7554;43.600;1.480;2023-10-31T00:27:57;11.90;99.90
14924;DHT22;7554;43.600;1.480;2023-10-31T00:30:24;12.20;99.90
14924;DHT22;7554;43.600;1.480;2023-10-31T00:32:51;10.90;99.90
14924;DHT22;7554;43.600;1.480;2023-10-31T00:35:19;11.10;99.90
14924;DHT22;7554;43.600;1.480;2023-10-31T00:37:47;11.80;99.90
14924;DHT22;7554;43.600;1.480;2023-10-31T00:40:15;12.10;99.90
14924;DHT22;7554;43.600;1.480;2023-10-31T00:42:43;11.60;99.90
14924;DHT22;7554;43.600;1.480;2023-10-31T00:45:11;10.50;99.90
14924;DHT22;7554;43.600;1.480;2023-10-31T00:47:38;10.90;99.90
14924;DHT22;7554;43.600;1.480;2023-10-31T00:50:06;12.20;99.90
14924;DHT22;7554;43.600;1.480;2023-10-31T00:52:34;12.20;99.90
14924;DHT22;7554;43.600;1.480;2023-10-31T00:55:04;11.90;99.90
14924;DHT22;7554;43.600;1.480;2023-10-31T00:57:32;10.60;99.90
14924;DHT22;7554;43.600;1.480;2023-10-31T00:59:59;11.10;99.90
14924;DHT22;7554;43.600;1.480;2023-10-31T01:02:26;11.50;99.90
14924;DHT22;7554;43.600;1.480;2023-10-31T01:04:54;11.10;99.90
14924;DHT22;7554;43.600;1.480;2023-10-31T01:07:21;12.00;99.90
14924;DHT22;7554;43.600;1.480;2023-10-31T01:09:48;10.70;99.90
14924;DHT22;7554;43.600;1.480;2023-10-31T01:12:17;12.10;99.90
14924;DHT22;7554;43.600;1.480;2023-10-31T01:14:44;11.70;99.90
14924;DHT22;7554;43.600;1.480;2023-10-31T01:17:11;12.30;99.90
14924;DHT22;7554;43.600;1.480;2023-10-31T01:19:39;10.70;99.90
14924;DHT22;7554;43.600;1.480;2023-10-31T01:22:06;12.00;99.90
14924;DHT22;7554;43.600;1.480;2023-10-31T01:24:34;11.50;99.90
14924;DHT22;7554;43.600;1.480;2023-10-31T01:27:02;12.30;99.90
14924;DHT22;7554;43.600;1.480;2023-10-31T01:29:30;11.60;99.90
14924;DHT22;7554;43.600;1.480;2023-10-31T01:31:58;11.60;99.90
14924;DHT22;7554;43.600;1.480;2023-10-31T01:34:25;11.30;99.90
14924;DHT22;7554;43.600;1.480;2023-10-31T01:36:52;10.90;99.90
14924;DHT22;7554;43.600;1.480;2023-10-31T01:39:19;12.20;99.90
14924;DHT22;7554;43.600;1.480;2023-10-31T01:41:47;12.20;99.90
14924;DHT22;7554;43.600;1.480;2023-10-31T01:44:14;11.20;99.90
14924;DHT22;7554;43.600;1.480;2023-10-31T01:46:43;11.10;99.90
14924;DHT22;7554;43.600;1.480;2023-10-31T01:49:10;10.80;99.90
14924;DHT22;7554;43.600;1.480;2023-10-31T01:51:38;11.40;99.90
14924;DHT22;7554;43.600;1.480;2023-10-31T01:54:05;11.70;99.90
14924;DHT22;7554;43.600;1.480;2023-10-31T01:56:33;10.80;99.90
14924;DHT22;7554;43.600;1.480;2023-10-31T01:59:00;10.70;99.90
14924;DHT22;7554;43.600;1.480;2023-10-31T02:01:27;10.70;99.90
14924;DHT22;7554;43.600;1.480;2023-10-31T02:03:56;11.60;99.90
14924;DHT22;7554;43.600;1.480;2023-10-31T02:06:24;11.40;99.90
14924;DHT22;7554;43.600;1.480;2023-10-31T02:08:52;11.50;99.90
14924;DHT22;7554;43.600;1.480;2023-10-31T02:11:19;10.90;99.90
14924;DHT22;7554;43.600;1.480;2023-10-31T02:13:46;11.60;99.90
14924;DHT22;7554;43.600;1.480;2023-10-31T02:16:13;10.80;99.90
14924;DHT22;7554;43.600;1.480;2023-10-31T02:18:41;11.00;99.90
14924;DHT22;7554;43.600;1.480;2023-10-31T02:21:10;11.70;99.90
14924;DHT22;7554;43.600;1.480;2023-10-31T02:23:39;12.20;99.90
14924;DHT22;7554;43.600;1.480;2023-10-31T02:26:07;11.10;99.90
14924;DHT22;7554;43.600;1.480;2023-10-31T02:28:34;11.60;99.90
14924;DHT22;7554;43.600;1.480;2023-10-31T02:31:01;11.20;99.90
14924;DHT22;7554;43.600;1.480;2023-10-31T02:33:28;11.80;99.90
14924;DHT22;7554;43.600;1.480;2023-10-31T02:35:56;11.50;99.90
14924;DHT22;7554;43.600;1.480;2023-10-31T02:38:23;11.40;99.90
14924;DHT22;7554;43.600;1.480;2023-10-31T02:40:52;11.50;99.90
14924;DHT22;7554;43.600;1.480;2023-10-31T02:43:19;11.80;99.90
14924;DHT22;7554;43.600;1.480;2023-10-31T02:45:47;10.70;99.90
14924;DHT22;7554;43.600;1.480;2023-10-31T02:48:14;11.20;99.90
14924;DHT22;7554;43.600;1.480;2023-10-31T02:50:41;10.90;99.90
14924;DHT22;7554;43.600;1.480;2023-10-31T02:53:09;10.80;99.90
14924;DHT22;7554;43.600;1.480;2023-10-31T02:55:36;11.30;99.90
14924;DHT22;7554;43.600;1.480;2023-10-31T02:58:05;11.10;99.90
14924;DHT22;7554;43.600;1.480;2023-10-31T03:00:32;10.70;99.90
14924;DHT22;7554;43.600;1.480;2023-10-31T03:02:59;11.70;99.90
14924;DHT22;7554;43.600;1.480;2023-10-31T03:05:26;11.60;99.90
14924;DHT22;7554;43.600;1.480;2023-10-31T03:07:54;10.80;99.90
14924;DHT22;7554;43.600;1.480;2023-10-31T03:10:21;11.70;99.90
14924;DHT22;7554;43.600;1.480;2023-10-31T03:12:48;11.00;99.90
14924;DHT22;7554;43.600;1.480;2023-10-31T03:15:17;10.70;99.90
14924;DHT22;7554;43.600;1.480;2023-10-31T03:17:45;11.50;99.90
14924;DHT22;7554;43.600;1.480;2023-10-31T03:20:12;11.50;99.90
14924;DHT22;7554;43.600;1.480;2023-10-31T03:22:39;10.70;99.90
14924;DHT22;7554;43.600;1.480;2023-10-31T03:25:07;10.70;99.90
14924;DHT22;7554;43.600;1.480;2023-10-31T03:27:35;10.60;99.90
14924;DHT22;7554;43.600;1.480;2023-10-31T03:30:02;11.30;99.90
14924;DHT22;7554;43.600;1.480;2023-10-31T03:32:31;10.50;99.90
14924;DHT22;7554;43.600;1.480;2023-10-31T03:34:58;11.40;99.90
14924;DHT22;7554;43.600;1.480;2023-10-31T03:37:25;10.50;99.90
14924;DHT22;7554;43.600;1.480;2023-10-31T03:39:53;10.80;99.90
14924;DHT22;7554;43.600;1.480;2023-10-31T03:42:20;11.30;99.90
14924;DHT22;7554;43.600;1.480;2023-10-31T03:44:47;10.80;99.90
14924;DHT22;7554;43.600;1.480;2023-10-31T03:47:15;10.90;99.90
14924;DHT22;7554;43.600;1.480;2023-10-31T03:49:43;11.30;99.90
14924;DHT22;7554;43.600;1.480;2023-10-31T03:52:11;11.10;99.90
14924;DHT22;7554;43.600;1.480;2023-10-31T03:54:38;11.20;99.90
14924;DHT22;7554;43.600;1.480;2023-10-31T03:57:05;10.80;99.90
14924;DHT22;7554;43.600;1.480;2023-10-31T03:59:33;11.20;99.90
14924;DHT22;7554;43.600;1.480;2023-10-31T04:02:00;10.50;99.90
14924;DHT22;7554;43.600;1.480;2023-10-31T04:04:27;10.30;99.90
14924;DHT22;7554;43.600;1.480;2023-10-31T04:06:56;10.90;99.90
14924;DHT22;7554;43.600;1.480;2023-10-31T04:09:23;10.80;99.90
14924;DHT22;7554;43.600;1.480;2023-10-31T04:11:50;10.60;99.90
14924;DHT22;7554;43.600;1.480;2023-10-31T04:14:18;10.90;99.90
14924;DHT22;7554;43.600;1.480;2023-10-31T04:16:45;10.20;99.90
14924;DHT22;7554;43.600;1.480;2023-10-31T04:19:12;10.30;99.90
14924;DHT22;7554;43.600;1.480;2023-10-31T04:21:39;10.40;99.90
14924;DHT22;7554;43.600;1.480;2023-10-31T04:24:08;10.40;99.90
14924;DHT22;7554;43.600;1.480;2023-10-31T04:26:36;10.40;99.90
14924;DHT22;7554;43.600;1.480;2023-10-31T04:29:03;10.80;99.90
14924;DHT22;7554;43.600;1.480;2023-10-31T04:31:30;10.10;99.90
14924;DHT22;7554;43.600;1.480;2023-10-31T04:33:58;10.00;99.90
14924;DHT22;7554;43.600;1.480;2023-10-31T04:36:25;10.80;99.90
14924;DHT22;7554;43.600;1.480;2023-10-31T04:38:52;10.30;99.90
14924;DHT22;7554;43.600;1.480;2023-10-31T04:41:21;10.00;99.90
14924;DHT22;7554;43.600;1.480;2023-10-31T04:43:48;10.60;99.90
14924;DHT22;7554;43.600;1.480;2023-10-31T04:46:16;10.10;99.90
14924;DHT22;7554;43.600;1.480;2023-10-31T04:48:43;10.50;99.90
14924;DHT22;7554;43.600;1.480;2023-10-31T04:51:10;10.40;99.90
14924;DHT22;7554;43.600;1.480;2023-10-31T04:53:38;10.10;99.90
14924;DHT22;7554;43.600;1.480;2023-10-31T04:56:12;10.60;99.90
14924;DHT22;7554;43.600;1.480;2023-10-31T04:58:41;10.70;99.90
14924;DHT22;7554;43.600;1.480;2023-10-31T05:01:09;10.40;99.90
14924;DHT22;7554;43.600;1.480;2023-10-31T05:03:36;10.30;99.90
14924;DHT22;7554;43.600;1.480;2023-10-31T05:06:04;10.10;99.90
14924;DHT22;7554;43.600;1.480;2023-10-31T05:08:32;10.30;99.90
14924;DHT22;7554;43.600;1.480;2023-10-31T05:10:59;10.70;99.90
14924;DHT22;7554;43.600;1.480;2023-10-31T05:13:27;10.60;99.90
14924;DHT22;7554;43.600;1.480;2023-10-31T05:15:55;10.70;99.90
14924;DHT22;7554;43.600;1.480;2023-10-31T05:18:23;10.80;99.90
14924;DHT22;7554;43.600;1.480;2023-10-31T05:20:50;10.70;99.90
14924;DHT22;7554;43.600;1.480;2023-10-31T05:23:18;10.60;99.90
14924;DHT22;7554;43.600;1.480;2023-10-31T05:25:45;10.10;99.90
14924;DHT22;7554;43.600;1.480;2023-10-31T05:28:12;10.60;99.90
14924;DHT22;7554;43.600;1.480;2023-10-31T05:30:39;10.40;99.90
14924;DHT22;7554;43.600;1.480;2023-10-31T05:33:08;10.30;99.90
14924;DHT22;7554;43.600;1.480;2023-10-31T05:35:36;10.60;99.90
14924;DHT22;7554;43.600;1.480;2023-10-31T05:38:03;10.70;99.90
14924;DHT22;7554;43.600;1.480;2023-10-31T05:40:30;10.50;99.90
14924;DHT22;7554;43.600;1.480;2023-10-31T05:43:01;10.40;99.90
14924;DHT22;7554;43.600;1.480;2023-10-31T05:45:29;10.40;99.90
14924;DHT22;7554;43.600;1.480;2023-10-31T05:47:57;10.40;99.90
14924;DHT22;7554;43.600;1.480;2023-10-31T05:50:25;10.40;99.90
14924;DHT22;7554;43.600;1.480;2023-10-31T05:52:53;10.40;99.90
14924;DHT22;7554;43.600;1.480;2023-10-31T05:55:20;9.90;99.90
14924;DHT22;7554;43.600;1.480;2023-10-31T05:57:47;10.00;99.90
14924;DHT22;7554;43.600;1.480;2023-10-31T06:00:16;9.80;99.90
14924;DHT22;7554;43.600;1.480;2023-10-31T06:02:44;9.90;99.90
14924;DHT22;7554;43.600;1.480;2023-10-31T06:05:11;10.50;99.90
14924;DHT22;7554;43.600;1.480;2023-10-31T06:07:40;10.50;99.90
14924;DHT22;7554;43.600;1.480;2023-10-31T06:10:08;9.90;99.90
14924;DHT22;7554;43.600;1.480;2023-10-31T06:12:35;10.30;99.90
14924;DHT22;7554;43.600;1.480;2023-10-31T06:15:03;9.80;99.90
14924;DHT22;7554;43.600;1.480;2023-10-31T06:17:30;10.10;99.90
14924;DHT22;7554;43.600;1.480;2023-10-31T06:20:00;9.90;99.90
14924;DHT22;7554;43.600;1.480;2023-10-31T06:22:27;10.00;99.90
14924;DHT22;7554;43.600;1.480;2023-10-31T06:24:57;10.40;99.90
14924;DHT22;7554;43.600;1.480;2023-10-31T06:27:24;10.40;99.90
14924;DHT22;7554;43.600;1.480;2023-10-31T06:29:52;10.30;99.90
14924;DHT22;7554;43.600;1.480;2023-10-31T06:32:21;9.80;99.90
14924;DHT22;7554;43.600;1.480;2023-10-31T06:34:48;10.10;99.90
14924;DHT22;7554;43.600;1.480;2023-10-31T06:37:16;9.70;99.90
14924;DHT22;7554;43.600;1.480;2023-10-31T06:39:43;9.80;99.90
14924;DHT22;7554;43.600;1.480;2023-10-31T06:42:13;10.20;99.90
14924;DHT22;7554;43.600;1.480;2023-10-31T06:44:40;10.10;99.90
14924;DHT22;7554;43.600;1.480;2023-10-31T06:47:08;9.90;99.90
14924;DHT22;7554;43.600;1.480;2023-10-31T06:49:35;9.70;99.90
14924;DHT22;7554;43.600;1.480;2023-10-31T06:52:03;10.30;99.90
14924;DHT22;7554;43.600;1.480;2023-10-31T06:54:30;10.00;99.90
14924;DHT22;7554;43.600;1.480;2023-10-31T06:56:58;10.10;92.40
14924;DHT22;7554;43.600;1.480;2023-10-31T06:59:28;10.00;62.90
14924;DHT22;7554;43.600;1.480;2023-10-31T07:01:56;11.00;99.90
14924;DHT22;7554;43.600;1.480;2023-10-31T07:04:23;11.60;99.90
14924;DHT22;7554;43.600;1.480;2023-10-31T07:06:51;10.90;1.00
14924;DHT22;7554;43.600;1.480;2023-10-31T07:09:22;10.90;1.00
14924;DHT22;7554;43.600;1.480;2023-10-31T07:11:50;10.70;1.00
14924;DHT22;7554;43.600;1.480;2023-10-31T07:14:17;10.70;99.90
14924;DHT22;7554;43.600;1.480;2023-10-31T07:16:46;10.50;99.90
14924;DHT22;7554;43.600;1.480;2023-10-31T07:19:14;10.40;1.00
14924;DHT22;7554;43.600;1.480;2023-10-31T07:21:41;10.60;99.90
14924;DHT22;7554;43.600;1.480;2023-10-31T07:24:09;11.50;1.00
14924;DHT22;7554;43.600;1.480;2023-10-31T07:26:36;13.00;23.60
14924;DHT22;7554;43.600;1.480;2023-10-31T07:29:04;14.90;99.90
14924;DHT22;7554;43.600;1.480;2023-10-31T07:31:31;13.10;1.00
14924;DHT22;7554;43.600;1.480;2023-10-31T07:34:00;12.40;1.00
14924;DHT22;7554;43.600;1.480;2023-10-31T07:36:28;12.00;99.90
14924;DHT22;7554;43.600;1.480;2023-10-31T07:38:58;11.80;1.00
14924;DHT22;7554;43.600;1.480;2023-10-31T07:41:25;11.50;1.00
14924;DHT22;7554;43.600;1.480;2023-10-31T07:43:52;11.70;99.90
14924;DHT22;7554;43.600;1.480;2023-10-31T07:46:20;11.60;48.70
14924;DHT22;7554;43.600;1.480;2023-10-31T07:48:47;11.50;1.00
14924;DHT22;7554;43.600;1.480;2023-10-31T07:51:16;11.60;1.00
14924;DHT22;7554;43.600;1.480;2023-10-31T07:53:43;11.50;1.00
14924;DHT22;7554;43.600;1.480;2023-10-31T07:56:15;11.50;1.00
14924;DHT22;7554;43.600;1.480;2023-10-31T07:58:47;11.90;1.00
14924;DHT22;7554;43.600;1.480;2023-10-31T08:01:16;12.40;1.00
14924;DHT22;7554;43.600;1.480;2023-10-31T08:03:47;13.10;1.00
14924;DHT22;7554;43.600;1.480;2023-10-31T08:06:16;13.60;1.00
14924;DHT22;7554;43.600;1.480;2023-10-31T08:08:44;13.80;99.90
14924;DHT22;7554;43.600;1.480;2023-10-31T08:11:12;13.90;99.90
14924;DHT22;7554;43.600;1.480;2023-10-31T08:13:39;14.70;99.90
14924;DHT22;7554;43.600;1.480;2023-10-31T08:16:07;15.00;99.90
14924;DHT22;7554;43.600;1.480;2023-10-31T08:18:35;14.50;52.20
14924;DHT22;7554;43.600;1.480;2023-10-31T08:21:04;14.20;1.00
14924;DHT22;7554;43.600;1.480;2023-10-31T08:23:32;13.80;1.00
14924;DHT22;7554;43.600;1.480;2023-10-31T08:26:01;13.90;1.00
14924;DHT22;7554;43.600;1.480;2023-10-31T08:28:28;14.00;1.00
14924;DHT22;7554;43.600;1.480;2023-10-31T08:30:56;14.10;1.00
14924;DHT22;7554;43.600;1.480;2023-10-31T08:33:24;14.10;1.00
14924;DHT22;7554;43.600;1.480;2023-10-31T08:35:51;14.30;1.00
14924;DHT22;7554;43.600;1.480;2023-10-31T08:38:18;14.50;1.00
14924;DHT22;7554;43.600;1.480;2023-10-31T08:40:47;14.70;1.00
14924;DHT22;7554;43.600;1.480;2023-10-31T08:43:14;14.60;1.00
14924;DHT22;7554;43.600;1.480;2023-10-31T08:45:42;14.80;1.00
14924;DHT22;7554;43.600;1.480;2023-10-31T08:48:09;14.80;1.00
14924;DHT22;7554;43.600;1.480;2023-10-31T08:50:37;14.80;1.00
14924;DHT22;7554;43.600;1.480;2023-10-31T08:53:05;14.60;1.00
14924;DHT22;7554;43.600;1.480;2023-10-31T08:55:32;14.40;1.00
14924;DHT22;7554;43.600;1.480;2023-10-31T08:58:01;14.40;1.00
14924;DHT22;7554;43.600;1.480;2023-10-31T09:00:28;14.50;1.00
14924;DHT22;7554;43.600;1.480;2023-10-31T09:02:55;14.50;1.00
14924;DHT22;7554;43.600;1.480;2023-10-31T09:05:22;14.50;1.00
14924;DHT22;7554;43.600;1.480;2023-10-31T09:07:50;14.50;1.00
14924;DHT22;7554;43.600;1.480;2023-10-31T09:10:17;14.60;1.00
14924;DHT22;7554;43.600;1.480;2023-10-31T09:12:44;14.60;1.00
14924;DHT22;7554;43.600;1.480;2023-10-31T09:15:13;14.70;1.00
14924;DHT22;7554;43.600;1.480;2023-10-31T09:17:41;14.70;1.00
14924;DHT22;7554;43.600;1.480;2023-10-31T09:20:09;14.90;1.00
14924;DHT22;7554;43.600;1.480;2023-10-31T09:22:37;15.00;1.00
14924;DHT22;7554;43.600;1.480;2023-10-31T09:25:04;15.20;1.00
14924;DHT22;7554;43.600;1.480;2023-10-31T09:27:32;15.30;1.00
14924;DHT22;7554;43.600;1.480;2023-10-31T09:29:59;15.30;1.00
14924;DHT22;7554;43.600;1.480;2023-10-31T09:32:28;15.20;1.00
14924;DHT22;7554;43.600;1.480;2023-10-31T09:34:55;15.20;1.00
14924;DHT22;7554;43.600;1.480;2023-10-31T09:37:22;15.20;1.00
14924;DHT22;7554;43.600;1.480;2023-10-31T09:39:50;15.30;1.00
14924;DHT22;7554;43.600;1.480;2023-10-31T09:42:17;15.40;1.00
14924;DHT22;7554;43.600;1.480;2023-10-31T09:44:44;15.70;1.00
14924;DHT22;7554;43.600;1.480;2023-10-31T09:47:12;15.80;1.00
14924;DHT22;7554;43.600;1.480;2023-10-31T09:49:41;15.80;1.00
14924;DHT22;7554;43.600;1.480;2023-10-31T09:52:09;15.70;1.00
14924;DHT22;7554;43.600;1.480;2023-10-31T09:54:37;15.60;1.00
14924;DHT22;7554;43.600;1.480;2023-10-31T09:57:05;15.60;1.00
14924;DHT22;7554;43.600;1.480;2023-10-31T09:59:32;15.60;1.00
14924;DHT22;7554;43.600;1.480;2023-10-31T10:01:59;15.60;1.00
14924;DHT22;7554;43.600;1.480;2023-10-31T10:04:27;15.80;1.00
14924;DHT22;7554;43.600;1.480;2023-10-31T10:07:00;16.20;1.00
14924;DHT22;7554;43.600;1.480;2023-10-31T10:09:28;16.50;1.00
14924;DHT22;7554;43.600;1.480;2023-10-31T10:11:57;16.70;1.00
14924;DHT22;7554;43.600;1.480;2023-10-31T10:14:25;17.10;1.00
14924;DHT22;7554;43.600;1.480;2023-10-31T10:16:54;17.20;1.00
14924;DHT22;7554;43.600;1.480;2023-10-31T10:19:22;17.30;1.00
14924;DHT22;7554;43.600;1.480;2023-10-31T10:21:50;17.30;1.00
14924;DHT22;7554;43.600;1.480;2023-10-31T10:24:20;17.00;1.00
14924;DHT22;7554;43.600;1.480;2023-10-31T10:26:48;16.60;1.00
14924;DHT22;7554;43.600;1.480;2023-10-31T10:29:16;16.30;1.00
14924;DHT22;7554;43.600;1.480;2023-10-31T10:31:43;16.10;1.00
14924;DHT22;7554;43.600;1.480;2023-10-31T10:34:14;16.10;1.00
14924;DHT22;7554;43.600;1.480;2023-10-31T10:36:46;16.10;1.00
14924;DHT22;7554;43.600;1.480;2023-10-31T10:39:14;16.10;1.00
14924;DHT22;7554;43.600;1.480;2023-10-31T10:41:49;16.10;1.00
14924;DHT22;7554;43.600;1.480;2023-10-31T10:44:19;16.00;1.00
14924;DHT22;7554;43.600;1.480;2023-10-31T10:46:54;16.00;1.00
14924;DHT22;7554;43.600;1.480;2023-10-31T10:49:24;16.10;1.00
14924;DHT22;7554;43.600;1.480;2023-10-31T10:51:53;16.10;1.00
14924;DHT22;7554;43.600;1.480;2023-10-31T10:54:29;16.10;1.00
14924;DHT22;7554;43.600;1.480;2023-10-31T10:57:05;16.10;1.00
14924;DHT22;7554;43.600;1.480;2023-10-31T10:59:39;16.20;1.00
14924;DHT22;7554;43.600;1.480;2023-10-31T11:02:08;16.30;1.00
14924;DHT22;7554;43.600;1.480;2023-10-31T11:04:36;16.30;1.00
14924;DHT22;7554;43.600;1.480;2023-10-31T11:07:05;16.40;1.00
14924;DHT22;7554;43.600;1.480;2023-10-31T11:09:33;16.30;1.00
14924;DHT22;7554;43.600;1.480;2023-10-31T11:12:02;16.30;1.00
14924;DHT22;7554;43.600;1.480;2023-10-31T11:14:31;16.20;1.00
14924;DHT22;7554;43.600;1.480;2023-10-31T11:17:02;16.30;1.00
14924;DHT22;7554;43.600;1.480;2023-10-31T11:19:34;16.30;1.00
14924;DHT22;7554;43.600;1.480;2023-10-31T11:22:02;16.30;1.00
14924;DHT22;7554;43.600;1.480;2023-10-31T11:24:32;16.30;1.00
14924;DHT22;7554;43.600;1.480;2023-10-31T11:27:02;16.30;1.00
14924;DHT22;7554;43.600;1.480;2023-10-31T11:29:31;16.30;1.00
14924;DHT22;7554;43.600;1.480;2023-10-31T11:31:59;16.40;1.00
14924;DHT22;7554;43.600;1.480;2023-10-31T11:34:27;16.50;1.00
14924;DHT22;7554;43.600;1.480;2023-10-31T11:39:40;16.50;1.00
14924;DHT22;7554;43.600;1.480;2023-10-31T11:42:18;16.60;1.00
14924;DHT22;7554;43.600;1.480;2023-10-31T11:44:55;16.60;1.00
14924;DHT22;7554;43.600;1.480;2023-10-31T11:47:22;16.80;1.00
14924;DHT22;7554;43.600;1.480;2023-10-31T11:49:50;16.90;1.00
14924;DHT22;7554;43.600;1.480;2023-10-31T11:52:18;16.80;1.00
14924;DHT22;7554;43.600;1.480;2023-10-31T11:54:45;16.70;1.00
14924;DHT22;7554;43.600;1.480;2023-10-31T11:57:27;16.60;1.00
14924;DHT22;7554;43.600;1.480;2023-10-31T11:59:55;16.60;1.00
14924;DHT22;7554;43.600;1.480;2023-10-31T12:02:22;16.60;1.00
14924;DHT22;7554;43.600;1.480;2023-10-31T12:04:49;16.60;1.00
14924;DHT22;7554;43.600;1.480;2023-10-31T12:07:18;16.60;1.00
14924;DHT22;7554;43.600;1.480;2023-10-31T12:09:46;16.70;1.00
14924;DHT22;7554;43.600;1.480;2023-10-31T12:12:14;16.60;1.00
14924;DHT22;7554;43.600;1.480;2023-10-31T12:14:43;16.50;1.00
14924;DHT22;7554;43.600;1.480;2023-10-31T12:17:10;16.60;1.00
14924;DHT22;7554;43.600;1.480;2023-10-31T12:19:37;16.60;1.00
14924;DHT22;7554;43.600;1.480;2023-10-31T12:22:13;16.70;1.00
14924;DHT22;7554;43.600;1.480;2023-10-31T12:24:40;16.60;1.00
14924;DHT22;7554;43.600;1.480;2023-10-31T12:27:08;16.60;1.00
14924;DHT22;7554;43.600;1.480;2023-10-31T12:29:36;16.70;1.00
14924;DHT22;7554;43.600;1.480;2023-10-31T12:32:05;16.70;1.00
14924;DHT22;7554;43.600;1.480;2023-10-31T12:34:43;16.60;1.00
14924;DHT22;7554;43.600;1.480;2023-10-31T12:37:11;16.60;1.00
14924;DHT22;7554;43.600;1.480;2023-10-31T12:39:40;16.60;1.00
14924;DHT22;7554;43.600;1.480;2023-10-31T12:42:07;16.70;1.00
14924;DHT22;7554;43.600;1.480;2023-10-31T12:44:35;16.80;1.00
14924;DHT22;7554;43.600;1.480;2023-10-31T12:47:08;16.80;1.00
14924;DHT22;7554;43.600;1.480;2023-10-31T12:49:36;16.80;1.00
14924;DHT22;7554;43.600;1.480;2023-10-31T12:52:04;16.80;1.00
14924;DHT22;7554;43.600;1.480;2023-10-31T12:54:33;16.80;1.00
14924;DHT22;7554;43.600;1.480;2023-10-31T12:57:02;16.80;1.00
14924;DHT22;7554;43.600;1.480;2023-10-31T12:59:30;16.90;1.00
14924;DHT22;7554;43.600;1.480;2023-10-31T13:01:58;16.80;1.00
14924;DHT22;7554;43.600;1.480;2023-10-31T13:04:27;16.90;1.00
14924;DHT22;7554;43.600;1.480;2023-10-31T13:06:58;16.90;1.00
14924;DHT22;7554;43.600;1.480;2023-10-31T13:09:29;16.90;1.00
14924;DHT22;7554;43.600;1.480;2023-10-31T13:11:59;16.90;1.00
14924;DHT22;7554;43.600;1.480;2023-10-31T13:14:27;16.90;1.00
14924;DHT22;7554;43.600;1.480;2023-10-31T13:16:54;16.90;1.00
14924;DHT22;7554;43.600;1.480;2023-10-31T13:19:22;16.80;1.00
14924;DHT22;7554;43.600;1.480;2023-10-31T13:21:51;16.80;1.00
14924;DHT22;7554;43.600;1.480;2023-10-31T13:24:18;16.80;1.00
14924;DHT22;7554;43.600;1.480;2023-10-31T13:26:46;16.70;1.00
14924;DHT22;7554;43.600;1.480;2023-10-31T13:29:17;16.80;1.00
14924;DHT22;7554;43.600;1.480;2023-10-31T13:31:44;16.80;1.00
14924;DHT22;7554;43.600;1.480;2023-10-31T13:34:11;16.80;1.00
14924;DHT22;7554;43.600;1.480;2023-10-31T13:36:39;16.70;1.00
14924;DHT22;7554;43.600;1.480;2023-10-31T13:39:08;16.80;1.00
14924;DHT22;7554;43.600;1.480;2023-10-31T13:41:35;16.70;1.00
14924;DHT22;7554;43.600;1.480;2023-10-31T13:44:03;16.60;1.00
14924;DHT22;7554;43.600;1.480;2023-10-31T13:46:31;16.70;1.00
14924;DHT22;7554;43.600;1.480;2023-10-31T13:48:58;16.60;1.00
14924;DHT22;7554;43.600;1.480;2023-10-31T13:51:26;16.70;1.00
14924;DHT22;7554;43.600;1.480;2023-10-31T13:53:54;16.70;1.00
14924;DHT22;7554;43.600;1.480;2023-10-31T13:56:23;16.70;1.00
14924;DHT22;7554;43.600;1.480;2023-10-31T13:58:50;16.70;1.00
14924;DHT22;7554;43.600;1.480;2023-10-31T14:01:18;16.70;1.00
14924;DHT22;7554;43.600;1.480;2023-10-31T14:03:50;16.60;1.00
14924;DHT22;7554;43.600;1.480;2023-10-31T14:06:17;16.70;1.00
14924;DHT22;7554;43.600;1.480;2023-10-31T14:08:45;16.70;1.00
14924;DHT22;7554;43.600;1.480;2023-10-31T14:11:12;16.60;1.00
14924;DHT22;7554;43.600;1.480;2023-10-31T14:13:41;16.50;1.00
14924;DHT22;7554;43.600;1.480;2023-10-31T14:16:11;16.50;1.00
14924;DHT22;7554;43.600;1.480;2023-10-31T14:18:39;16.50;1.00
14924;DHT22;7554;43.600;1.480;2023-10-31T14:21:08;16.40;1.00
14924;DHT22;7554;43.600;1.480;2023-10-31T14:23:36;16.50;1.00
14924;DHT22;7554;43.600;1.480;2023-10-31T14:26:03;16.50;1.00
14924;DHT22;7554;43.600;1.480;2023-10-31T14:28:32;16.50;1.00
14924;DHT22;7554;43.600;1.480;2023-10-31T14:31:01;16.40;1.00
14924;DHT22;7554;43.600;1.480;2023-10-31T14:33:29;16.40;1.00
14924;DHT22;7554;43.600;1.480;2023-10-31T14:35:59;16.50;1.00
14924;DHT22;7554;43.600;1.480;2023-10-31T14:38:27;16.40;1.00
14924;DHT22;7554;43.600;1.480;2023-10-31T14:40:55;16.40;1.00
14924;DHT22;7554;43.600;1.480;2023-10-31T14:43:22;16.40;1.00
14924;DHT22;7554;43.600;1.480;2023-10-31T14:45:49;16.40;1.00
14924;DHT22;7554;43.600;1.480;2023-10-31T14:48:18;16.30;1.00
14924;DHT22;7554;43.600;1.480;2023-10-31T14:50:46;16.30;1.00
14924;DHT22;7554;43.600;1.480;2023-10-31T14:53:14;16.30;1.00
14924;DHT22;7554;43.600;1.480;2023-10-31T14:55:42;16.20;1.00
14924;DHT22;7554;43.600;1.480;2023-10-31T14:58:09;16.20;1.00
14924;DHT22;7554;43.600;1.480;2023-10-31T15:00:37;16.30;1.00
14924;DHT22;7554;43.600;1.480;2023-10-31T15:03:04;16.30;1.00
14924;DHT22;7554;43.600;1.480;2023-10-31T15:05:33;16.30;1.00
14924;DHT22;7554;43.600;1.480;2023-10-31T15:08:01;16.30;1.00
14924;DHT22;7554;43.600;1.480;2023-10-31T15:10:28;16.30;1.00
14924;DHT22;7554;43.600;1.480;2023-10-31T15:12:56;16.40;1.00
14924;DHT22;7554;43.600;1.480;2023-10-31T15:15:23;16.40;1.00
14924;DHT22;7554;43.600;1.480;2023-10-31T15:17:50;16.50;1.00
14924;DHT22;7554;43.600;1.480;2023-10-31T15:20:18;16.50;1.00
14924;DHT22;7554;43.600;1.480;2023-10-31T15:22:47;16.40;1.00
14924;DHT22;7554;43.600;1.480;2023-10-31T15:25:14;16.30;1.00
14924;DHT22;7554;43.600;1.480;2023-10-31T15:27:42;16.20;1.00
14924;DHT22;7554;43.600;1.480;2023-10-31T15:30:10;16.10;1.00
14924;DHT22;7554;43.600;1.480;2023-10-31T15:32:38;16.10;1.00
14924;DHT22;7554;43.600;1.480;2023-10-31T15:35:06;15.90;1.00
14924;DHT22;7554;43.600;1.480;2023-10-31T15:37:34;16.00;1.00
14924;DHT22;7554;43.600;1.480;2023-10-31T15:40:04;15.90;1.00
14924;DHT22;7554;43.600;1.480;2023-10-31T15:42:32;16.00;1.00
14924;DHT22;7554;43.600;1.480;2023-10-31T15:44:59;15.90;1.00
14924;DHT22;7554;43.600;1.480;2023-10-31T15:47:27;15.90;1.00
14924;DHT22;7554;43.600;1.480;2023-10-31T15:49:55;15.90;1.00
14924;DHT22;7554;43.600;1.480;2023-10-31T15:52:22;15.80;1.00
14924;DHT22;7554;43.600;1.480;2023-10-31T15:54:50;15.70;1.00
14924;DHT22;7554;43.600;1.480;2023-10-31T15:57:18;15.80;1.00
14924;DHT22;7554;43.600;1.480;2023-10-31T15:59:48;15.80;1.00
14924;DHT22;7554;43.600;1.480;2023-10-31T16:02:15;15.80;1.00